createdAt,value
2022-08-10T00:04:53.152Z,16.70
2022-08-10T00:09:58.986Z,16.60
2022-08-10T00:15:02.297Z,16.60
2022-08-10T00:20:08.562Z,16.50
2022-08-10T00:25:13.620Z,16.10
2022-08-10T00:30:16.942Z,16.60
2022-08-10T00:35:20.267Z,16.60
2022-08-10T00:40:37.362Z,16.40
2022-08-10T00:45:41.275Z,16.50
2022-08-10T00:50:46.002Z,16.40
2022-08-10T00:56:39.767Z,16.20
2022-08-10T01:02:09.376Z,16.10
2022-08-10T01:06:46.595Z,16.10
2022-08-10T01:12:37.922Z,16.10
2022-08-10T01:17:49.697Z,16.10
2022-08-10T01:23:05.195Z,15.90
2022-08-10T01:28:25.331Z,15.80
2022-08-10T01:33:58.976Z,15.80
2022-08-10T01:39:02.447Z,15.80
2022-08-10T01:44:12.116Z,15.90
2022-08-10T01:49:19.248Z,15.80
2022-08-10T01:54:26.216Z,15.80
2022-08-10T01:59:33.901Z,15.60
2022-08-10T02:04:41.704Z,15.60
2022-08-10T02:09:49.230Z,13.10
2022-08-10T02:14:55.310Z,15.60
2022-08-10T02:20:04.262Z,15.40
2022-08-10T02:25:39.976Z,15.40
2022-08-10T02:30:34.872Z,15.30
2022-08-10T02:35:54.672Z,15.20
2022-08-10T02:45:03.292Z,15.20
2022-08-10T02:46:40.749Z,15.30
2022-08-10T02:52:06.997Z,15.20
2022-08-10T02:57:15.428Z,15.20
2022-08-10T03:02:29.049Z,15.10
2022-08-10T03:07:44.117Z,15.00
2022-08-10T03:12:52.431Z,15.00
2022-08-10T03:17:58.924Z,14.80
2022-08-10T03:23:05.971Z,14.60
2022-08-10T03:28:10.707Z,14.60
2022-08-10T03:33:23.368Z,14.60
2022-08-10T03:38:28.157Z,14.70
2022-08-10T03:43:32.509Z,14.80
2022-08-10T03:48:48.658Z,14.80
2022-08-10T03:54:05.350Z,14.80
2022-08-10T03:59:12.068Z,14.70
2022-08-10T04:04:22.479Z,14.70
2022-08-10T04:09:53.271Z,14.80
2022-08-10T04:14:55.161Z,14.90
2022-08-10T04:20:00.686Z,15.00
2022-08-10T04:25:08.311Z,14.90
2022-08-10T04:30:12.454Z,14.90
2022-08-10T04:35:20.008Z,14.80
2022-08-10T04:40:30.430Z,14.90
2022-08-10T04:45:50.158Z,14.80
2022-08-10T04:50:54.774Z,14.40
2022-08-10T04:55:59.652Z,14.40
2022-08-10T05:01:03.124Z,14.50
2022-08-10T05:06:07.672Z,14.70
2022-08-10T05:11:12.374Z,15.00
2022-08-10T05:16:32.011Z,15.30
2022-08-10T05:22:02.175Z,15.60
2022-08-10T05:27:10.174Z,15.70
2022-08-10T05:32:13.933Z,15.80
2022-08-10T05:38:13.276Z,16.30
2022-08-10T05:42:42.911Z,16.50
2022-08-10T05:48:53.836Z,16.50
2022-08-10T05:53:39.170Z,16.60
2022-08-10T05:58:35.079Z,16.50
2022-08-10T06:03:53.255Z,16.80
2022-08-10T06:08:59.462Z,17.30
2022-08-10T06:14:28.404Z,17.40
2022-08-10T06:19:33.506Z,17.70
2022-08-10T06:25:04.562Z,19.00
2022-08-10T06:30:20.614Z,19.80
2022-08-10T06:35:26.581Z,20.20
2022-08-10T06:40:36.398Z,21.00
2022-08-10T06:45:45.029Z,22.00
2022-08-10T06:51:14.198Z,22.80
2022-08-10T06:56:20.325Z,23.10
2022-08-10T07:01:51.220Z,22.70
2022-08-10T07:06:58.605Z,22.40
2022-08-10T07:12:07.903Z,22.50
2022-08-10T07:17:15.852Z,22.70
2022-08-10T07:23:50.752Z,22.50
2022-08-10T07:27:59.064Z,22.80
2022-08-10T07:33:07.254Z,23.20
2022-08-10T07:38:14.185Z,24.30
2022-08-10T07:43:19.155Z,25.30
2022-08-10T07:48:28.402Z,26.30
2022-08-10T07:53:34.939Z,27.20
2022-08-10T07:58:49.825Z,27.00
2022-08-10T08:04:11.167Z,26.90
2022-08-10T08:09:15.393Z,26.90
2022-08-10T08:14:20.253Z,26.50
2022-08-10T08:19:28.141Z,25.70
2022-08-10T08:24:35.626Z,26.90
2022-08-10T08:29:43.215Z,26.80
2022-08-10T08:34:49.734Z,27.00
2022-08-10T08:39:55.306Z,27.20
2022-08-10T08:45:09.987Z,27.40
2022-08-10T08:50:28.124Z,27.50
2022-08-10T08:56:03.884Z,27.30
2022-08-10T09:01:19.567Z,27.50
2022-08-10T09:06:41.734Z,27.60
2022-08-10T09:12:00.033Z,28.40
2022-08-10T09:17:13.225Z,28.80
2022-08-10T09:22:25.305Z,28.60
2022-08-10T09:27:37.285Z,29.10
2022-08-10T09:36:13.816Z,29.40
2022-08-10T09:38:18.433Z,29.90
2022-08-10T09:43:30.102Z,30.40
2022-08-10T09:48:40.597Z,31.70
2022-08-10T09:53:57.735Z,31.30
2022-08-10T09:59:27.196Z,31.40
2022-08-10T10:04:43.979Z,30.60
2022-08-10T10:09:59.086Z,30.50
2022-08-10T10:15:25.007Z,31.40
2022-08-10T10:20:35.755Z,31.50
2022-08-10T10:25:50.408Z,31.90
2022-08-10T10:31:05.992Z,30.80
2022-08-10T10:36:21.996Z,32.00
2022-08-10T10:42:03.372Z,32.10
2022-08-10T10:47:12.988Z,30.80
2022-08-10T10:52:29.361Z,29.30
2022-08-10T10:57:58.734Z,29.00
2022-08-10T11:03:33.561Z,29.20
2022-08-10T11:08:41.790Z,29.20
2022-08-10T11:14:25.050Z,29.80
2022-08-10T11:20:02.624Z,31.00
2022-08-10T11:24:58.269Z,33.00
2022-08-10T11:30:07.711Z,32.50
2022-08-10T11:35:20.738Z,33.10
2022-08-10T11:40:29.348Z,31.60
2022-08-10T11:45:37.615Z,31.30
2022-08-10T11:51:00.843Z,36.00
2022-08-10T11:56:10.976Z,32.30
2022-08-10T12:01:21.605Z,30.90
2022-08-10T12:06:53.813Z,29.20
2022-08-10T12:11:50.417Z,30.70
2022-08-10T12:17:03.663Z,31.80
2022-08-10T12:22:10.095Z,32.40
2022-08-10T12:27:21.191Z,33.50
2022-08-10T12:32:33.806Z,34.80
2022-08-10T12:37:45.224Z,33.50
2022-08-10T12:44:04.000Z,31.00
2022-08-10T12:48:42.859Z,32.00
2022-08-10T12:53:53.996Z,33.80
2022-08-10T12:59:01.710Z,33.10
2022-08-10T13:04:23.570Z,31.50
2022-08-10T13:09:28.822Z,26.10
2022-08-10T13:14:36.965Z,29.90
2022-08-10T13:19:55.202Z,31.70
2022-08-10T13:25:05.009Z,32.30
2022-08-10T13:30:10.453Z,32.90
2022-08-10T13:35:17.705Z,34.30
2022-08-10T13:40:22.845Z,34.80
2022-08-10T13:45:28.311Z,32.60
2022-08-10T13:50:37.452Z,31.90
2022-08-10T13:55:46.096Z,31.90
2022-08-10T14:01:00.011Z,30.50
2022-08-10T14:06:06.975Z,29.40
2022-08-10T14:11:15.528Z,29.00
2022-08-10T14:16:19.789Z,28.30
2022-08-10T14:21:24.706Z,28.60
2022-08-10T14:26:31.039Z,28.10
2022-08-10T14:31:37.216Z,27.60
2022-08-10T14:36:47.078Z,27.80
2022-08-10T14:42:01.208Z,32.00
2022-08-10T14:47:52.653Z,34.40
2022-08-10T14:52:44.409Z,32.10
2022-08-10T14:58:20.918Z,29.50
2022-08-10T15:04:01.262Z,30.40
2022-08-10T15:08:42.929Z,32.90
2022-08-10T15:14:14.818Z,33.80
2022-08-10T15:20:00.941Z,33.60
2022-08-10T15:25:05.812Z,33.80
2022-08-10T15:30:30.521Z,33.60
2022-08-10T15:35:54.877Z,32.50
2022-08-10T15:41:00.665Z,34.20
2022-08-10T15:46:15.021Z,32.40
2022-08-10T15:51:53.687Z,31.20
2022-08-10T15:57:04.378Z,29.90
2022-08-10T16:02:17.188Z,29.90
2022-08-10T16:07:45.346Z,30.30
2022-08-10T16:12:59.601Z,30.90
2022-08-10T16:18:07.025Z,32.20
2022-08-10T16:23:16.557Z,31.90
2022-08-10T16:28:23.829Z,30.60
2022-08-10T16:33:54.264Z,30.40
2022-08-10T16:38:55.890Z,30.00
2022-08-10T16:44:01.903Z,29.00
2022-08-10T16:49:06.236Z,28.30
2022-08-10T16:54:11.855Z,27.70
2022-08-10T16:59:17.797Z,27.80
2022-08-10T17:04:26.050Z,26.90
2022-08-10T17:09:33.402Z,26.60
2022-08-10T17:14:39.704Z,26.30
2022-08-10T17:19:45.583Z,26.30
2022-08-10T17:24:56.183Z,26.50
2022-08-10T17:30:04.744Z,26.20
2022-08-10T17:35:13.479Z,25.90
2022-08-10T17:40:22.566Z,28.60
2022-08-10T17:45:47.467Z,25.50
2022-08-10T17:50:53.961Z,25.40
2022-08-10T17:56:00.793Z,25.30
2022-08-10T18:01:40.534Z,25.10
2022-08-10T18:06:30.796Z,24.80
2022-08-10T18:11:41.580Z,24.70
2022-08-10T18:16:46.961Z,24.50
2022-08-10T18:21:51.448Z,24.40
2022-08-10T18:26:57.852Z,24.20
2022-08-10T18:32:03.575Z,24.10
2022-08-10T18:37:10.700Z,23.90
2022-08-10T18:42:19.815Z,23.70
2022-08-10T18:47:32.488Z,23.50
2022-08-10T18:52:38.444Z,23.30
2022-08-10T18:58:02.483Z,23.20
2022-08-10T19:03:53.828Z,23.00
2022-08-10T19:09:46.680Z,23.00
2022-08-10T19:14:41.243Z,22.90
2022-08-10T19:19:51.872Z,22.80
2022-08-10T19:25:04.997Z,22.60
2022-08-10T19:30:13.813Z,22.40
2022-08-10T19:35:26.020Z,22.20
2022-08-10T19:40:45.913Z,22.00
2022-08-10T19:46:02.460Z,21.90
2022-08-10T19:51:14.645Z,21.80
2022-08-10T19:56:34.281Z,21.70
2022-08-10T20:01:55.039Z,21.60
2022-08-10T20:07:09.436Z,21.60
2022-08-10T20:12:19.865Z,21.40
2022-08-10T20:17:45.020Z,21.10
2022-08-10T20:23:12.130Z,21.00
2022-08-10T20:28:22.023Z,20.90
2022-08-10T20:33:32.806Z,20.70
2022-08-10T20:38:44.545Z,20.50
2022-08-10T20:44:01.341Z,20.30
2022-08-10T20:49:28.159Z,20.10
2022-08-10T20:54:37.787Z,19.90
2022-08-10T21:00:04.333Z,19.80
2022-08-10T21:05:20.778Z,19.60
2022-08-10T21:10:37.709Z,19.50
2022-08-10T21:16:04.673Z,17.70
2022-08-10T21:21:41.188Z,19.30
2022-08-10T21:26:56.478Z,19.20
2022-08-10T21:32:12.063Z,19.10
2022-08-10T21:37:22.790Z,18.90
2022-08-10T21:42:54.160Z,18.90
2022-08-10T21:54:13.823Z,18.60
2022-08-10T21:59:42.739Z,18.50
2022-08-10T22:05:03.654Z,18.40
2022-08-10T22:10:29.036Z,18.20
2022-08-10T22:16:05.602Z,18.10
2022-08-10T22:21:45.701Z,18.00
2022-08-10T22:27:56.473Z,18.00
2022-08-10T22:31:29.012Z,18.70
2022-08-10T22:33:29.180Z,13.30
2022-08-10T22:39:09.116Z,17.90
2022-08-10T22:44:38.150Z,17.80
2022-08-10T22:49:40.594Z,17.60
2022-08-10T22:55:08.792Z,17.60
2022-08-10T23:00:19.045Z,17.50
2022-08-10T23:05:30.435Z,17.50
2022-08-10T23:10:38.932Z,17.40
2022-08-10T23:16:11.421Z,17.40
2022-08-10T23:21:18.747Z,17.40
2022-08-10T23:26:26.126Z,17.30
2022-08-10T23:31:59.106Z,17.20
2022-08-10T23:36:58.585Z,17.10
2022-08-10T23:42:07.972Z,17.00
2022-08-10T23:47:18.695Z,17.00
2022-08-10T23:52:24.822Z,16.90
2022-08-10T23:57:30.672Z,16.80
